Time;durP1;ratioP1;P1;durP2;ratioP2;P2;SDS_P1;SDS_P2;PMS_P1;PMS_P2;Temp;Humidity;BMP_temperature;BMP_pressure;BME280_temperature;BME280_humidity;BME280_pressure;Samples;Min_cycle;Max_cycle;Signal;HPM_P1;HPM_P2
2023/04/28 00:00:13;;;;;;;31.20;10.48;;;15.90;93.70;;;;;;5093920;28;20047;-73
2023/04/28 00:03:18;;;;;;;22.70;9.85;;;15.40;93.70;;;;;;5093014;28;20039;-73
2023/04/28 00:06:22;;;;;;;17.67;10.50;;;15.30;93.60;;;;;;5093909;28;20387;-73
2023/04/28 00:09:26;;;;;;;18.58;9.77;;;15.20;93.70;;;;;;5093722;28;20047;-73
2023/04/28 00:12:30;;;;;;;20.98;11.00;;;15.30;93.70;;;;;;5093553;28;20043;-73
2023/04/28 00:15:34;;;;;;;25.10;10.55;;;13.50;93.40;;;;;;5093420;28;20109;-72
2023/04/28 00:18:38;;;;;;;20.08;10.18;;;13.80;93.20;;;;;;5093758;28;20047;-73
2023/04/28 00:21:41;;;;;;;18.88;9.98;;;13.80;93.00;;;;;;5093296;28;20047;-72
2023/04/28 00:24:45;;;;;;;19.98;10.00;;;16.30;93.40;;;;;;5093484;28;20043;-72
2023/04/28 00:27:49;;;;;;;23.60;10.70;;;15.30;93.40;;;;;;5092425;28;20062;-72
2023/04/28 00:30:54;;;;;;;16.48;9.55;;;;;;;;;;5093493;28;20054;-72
2023/04/28 00:33:58;;;;;;;17.35;9.90;;;15.20;93.60;;;;;;5093455;28;20058;-72
2023/04/28 00:37:03;;;;;;;17.42;9.25;;;15.20;93.50;;;;;;5093339;28;20084;-72
2023/04/28 00:40:07;;;;;;;19.58;9.02;;;18.90;94.40;;;;;;5092866;28;20043;-72
2023/04/28 00:43:11;;;;;;;18.58;9.27;;;14.30;93.30;;;;;;5093255;28;20384;-72
2023/04/28 00:46:32;;;;;;;21.52;9.27;;;15.00;93.30;;;;;;5092121;28;20407;-73
2023/04/28 00:49:36;;;;;;;23.30;9.77;;;15.10;93.40;;;;;;5092437;28;20047;-72
2023/04/28 00:52:42;;;;;;;19.80;9.25;;;15.00;93.20;;;;;;5092025;28;20035;-72
2023/04/28 00:55:46;;;;;;;16.25;9.40;;;15.00;93.40;;;;;;5092867;28;20407;-72
2023/04/28 00:58:50;;;;;;;19.67;9.20;;;15.20;93.50;;;;;;5092784;28;20043;-72
2023/04/28 01:01:55;;;;;;;16.17;9.18;;;15.10;93.30;;;;;;5092075;28;20175;-73
2023/04/28 01:05:00;;;;;;;14.00;8.20;;;14.60;93.00;;;;;;5092606;28;20047;-72
2023/04/28 01:08:04;;;;;;;15.80;9.63;;;17.00;93.80;;;;;;5091967;28;20043;-72
2023/04/28 01:11:13;;;;;;;20.15;8.88;;;14.70;93.60;;;;;;5092055;28;20047;-73
2023/04/28 01:14:40;;;;;;;16.95;9.23;;;15.70;94.00;;;;;;5092691;28;20055;-73
2023/04/28 01:17:45;;;;;;;15.77;8.23;;;16.30;94.10;;;;;;5091735;28;20039;-72
2023/04/28 01:20:50;;;;;;;16.35;8.10;;;14.70;93.10;;;;;;5091581;28;20506;-72
2023/04/28 01:23:55;;;;;;;14.45;8.05;;;;;;;;;;5092412;28;20035;-72
2023/04/28 01:26:59;;;;;;;17.75;8.70;;;14.90;93.00;;;;;;5092432;28;20489;-72
2023/04/28 01:30:05;;;;;;;14.07;8.13;;;14.70;93.10;;;;;;5091152;28;20054;-72
2023/04/28 01:33:09;;;;;;;13.73;8.13;;;14.80;93.00;;;;;;5091338;28;20047;-72
2023/04/28 01:36:14;;;;;;;15.48;7.43;;;;;;;;;;5091064;28;20051;-72
2023/04/28 01:39:18;;;;;;;20.55;7.72;;;;;;;;;;5091063;28;20102;-73
2023/04/28 01:42:22;;;;;;;12.02;7.25;;;14.50;92.80;;;;;;5090903;28;20031;-72
2023/04/28 01:45:26;;;;;;;16.70;7.32;;;14.30;92.90;;;;;;5091516;28;20051;-72
2023/04/28 01:48:31;;;;;;;15.93;7.45;;;14.20;93.00;;;;;;5091252;28;20043;-73
2023/04/28 01:51:35;;;;;;;14.90;6.90;;;14.20;92.70;;;;;;5090863;28;20042;-72
2023/04/28 01:54:39;;;;;;;11.00;6.30;;;14.20;92.80;;;;;;5090934;28;20050;-72
2023/04/28 01:57:43;;;;;;;13.25;6.88;;;14.20;92.70;;;;;;5091173;28;20049;-72
2023/04/28 02:00:47;;;;;;;14.15;6.38;;;;;;;;;;5090318;28;20038;-72
2023/04/28 02:03:53;;;;;;;13.35;5.93;;;14.10;92.80;;;;;;5090642;28;20032;-72
2023/04/28 02:06:57;;;;;;;17.60;6.22;;;14.30;92.90;;;;;;5090862;28;20044;-72
2023/04/28 02:10:01;;;;;;;9.45;5.63;;;15.20;93.00;;;;;;5091569;28;20039;-72
2023/04/28 02:13:06;;;;;;;18.77;8.02;;;14.10;93.10;;;;;;5078997;28;20055;-72
2023/04/28 02:16:10;;;;;;;15.73;6.55;;;14.30;93.30;;;;;;5091327;28;20058;-72
2023/04/28 02:19:14;;;;;;;17.50;8.95;;;15.70;94.00;;;;;;5090444;28;20043;-72
2023/04/28 02:22:19;;;;;;;20.75;11.70;;;;;;;;;;5091568;28;20498;-72
2023/04/28 02:25:23;;;;;;;18.83;11.25;;;14.50;94.00;;;;;;5090269;28;20047;-72
2023/04/28 02:28:27;;;;;;;23.60;12.32;;;14.60;93.70;;;;;;5090503;28;20047;-72
2023/04/28 02:31:31;;;;;;;20.35;9.55;;;14.60;93.40;;;;;;5090406;28;20043;-72
2023/04/28 02:34:35;;;;;;;16.17;8.13;;;15.70;93.10;;;;;;5091044;28;20546;-72
2023/04/28 02:37:39;;;;;;;14.85;7.30;;;12.30;91.90;;;;;;5090436;28;20039;-72
2023/04/28 02:40:43;;;;;;;17.45;7.50;;;14.40;92.60;;;;;;5090411;28;20047;-72
2023/04/28 02:43:47;;;;;;;19.98;7.93;;;14.30;92.60;;;;;;5091117;28;20043;-72
2023/04/28 02:46:51;;;;;;;14.07;6.70;;;14.20;92.60;;;;;;5090383;28;20039;-72
2023/04/28 02:49:55;;;;;;;17.88;7.05;;;15.50;93.00;;;;;;5091052;28;20051;-72
2023/04/28 02:52:58;;;;;;;13.65;7.22;;;14.10;92.40;;;;;;5090043;28;20047;-72
2023/04/28 02:56:03;;;;;;;14.85;8.48;;;14.10;92.90;;;;;;5089821;28;20063;-72
2023/04/28 02:59:08;;;;;;;14.45;7.95;;;;;;;;;;5090229;28;20039;-72
2023/04/28 03:02:13;;;;;;;12.30;7.70;;;;;;;;;;5089929;28;20372;-72
2023/04/28 03:05:17;;;;;;;15.27;6.50;;;13.90;92.90;;;;;;5090056;28;20044;-72
2023/04/28 03:08:21;;;;;;;13.20;7.78;;;;;;;;;;5078382;28;20129;-72
2023/04/28 03:11:25;;;;;;;21.50;9.10;;;14.00;93.20;;;;;;5092843;28;20046;-72
2023/04/28 03:14:29;;;;;;;15.90;7.78;;;14.10;93.00;;;;;;5093936;28;20051;-72
2023/04/28 03:17:37;;;;;;;17.85;7.47;;;13.80;93.10;;;;;;5094096;28;20047;-72
2023/04/28 03:20:41;;;;;;;16.23;8.10;;;13.90;93.40;;;;;;5094569;28;20051;-72
2023/04/28 03:23:47;;;;;;;22.63;8.52;;;14.00;93.30;;;;;;5093716;28;20046;-72
2023/04/28 03:26:50;;;;;;;14.63;8.27;;;14.10;92.90;;;;;;5093478;28;20074;-72
2023/04/28 03:29:54;;;;;;;13.90;8.38;;;14.10;92.70;;;;;;5094346;28;20050;-72
2023/04/28 03:32:58;;;;;;;18.45;8.65;;;14.10;92.80;;;;;;5093810;28;20031;-72
2023/04/28 03:36:03;;;;;;;14.93;8.55;;;14.00;92.60;;;;;;5094333;28;20059;-72
2023/04/28 03:39:08;;;;;;;22.17;9.10;;;14.10;92.70;;;;;;5093649;28;20042;-72
2023/04/28 03:42:12;;;;;;;16.63;8.30;;;14.00;92.60;;;;;;5094457;28;20047;-72
2023/04/28 03:45:35;;;;;;;20.67;8.60;;;14.00;92.70;;;;;;5094027;28;20062;-72
2023/04/28 03:48:39;;;;;;;16.73;7.90;;;14.00;92.50;;;;;;5092992;28;20055;-72
2023/04/28 03:51:43;;;;;;;15.98;9.02;;;;;;;;;;5093225;28;20039;-72
2023/04/28 03:54:47;;;;;;;20.70;9.43;;;13.40;93.40;;;;;;5092811;28;20403;-72
2023/04/28 03:57:52;;;;;;;14.55;8.75;;;13.60;93.40;;;;;;5093914;28;20039;-72
2023/04/28 04:00:55;;;;;;;14.45;8.90;;;13.50;93.40;;;;;;5092696;28;20782;-72
2023/04/28 04:03:59;;;;;;;19.75;9.88;;;13.50;93.40;;;;;;5093863;28;20043;-73
2023/04/28 04:07:04;;;;;;;16.10;9.38;;;17.50;94.50;;;;;;5092678;28;20399;-71
2023/04/28 04:10:08;;;;;;;20.95;10.68;;;13.30;93.50;;;;;;5092838;28;20055;-71
2023/04/28 04:13:14;;;;;;;28.25;12.32;;;13.40;93.80;;;;;;5092734;28;20051;-72
2023/04/28 04:16:21;;;;;;;24.48;14.38;;;13.30;93.90;;;;;;5092633;28;20514;-72
2023/04/28 04:19:25;;;;;;;34.15;15.27;;;13.40;93.80;;;;;;5092392;28;20561;-72
2023/04/28 04:22:30;;;;;;;32.83;15.35;;;13.40;93.70;;;;;;5091772;28;20043;-72
2023/04/28 04:25:35;;;;;;;35.28;17.25;;;13.30;93.80;;;;;;5092378;28;20427;-72
2023/04/28 04:28:39;;;;;;;38.95;17.52;;;13.40;93.80;;;;;;5092600;28;20502;-72
2023/04/28 04:31:45;;;;;;;27.80;15.88;;;13.50;93.80;;;;;;5092607;28;20051;-72
2023/04/28 04:34:49;;;;;;;32.90;17.00;;;13.30;93.70;;;;;;5092158;28;20047;-72
2023/04/28 04:37:53;;;;;;;35.75;19.33;;;13.50;93.60;;;;;;5092437;28;20039;-72
2023/04/28 04:40:57;;;;;;;30.45;17.50;;;13.50;93.50;;;;;;5092206;28;20387;-72
2023/04/28 04:44:01;;;;;;;33.95;15.55;;;13.20;93.40;;;;;;5092108;28;20043;-72
2023/04/28 04:47:13;;;;;;;37.67;14.43;;;10.00;92.40;;;;;;5092122;28;20043;-72
2023/04/28 04:50:17;;;;;;;20.45;10.15;;;13.10;92.70;;;;;;5091944;28;20035;-72
2023/04/28 04:53:23;;;;;;;50.13;10.45;;;14.00;93.00;;;;;;5092258;28;20043;-72
2023/04/28 04:56:27;;;;;;;22.60;9.88;;;14.40;92.50;;;;;;5091706;28;20055;-72
2023/04/28 04:59:31;;;;;;;22.40;8.98;;;15.10;91.70;;;;;;5091818;28;20054;-72
2023/04/28 05:02:42;;;;;;;20.55;7.93;;;16.40;90.60;;;;;;5091715;28;20047;-72
2023/04/28 05:05:47;;;;;;;30.10;9.02;;;17.50;86.30;;;;;;5091882;28;20043;-73
2023/04/28 05:09:07;;;;;;;29.42;8.52;;;18.70;82.00;;;;;;5091932;28;20055;-72
2023/04/28 05:12:11;;;;;;;24.65;8.27;;;21.30;79.20;;;;;;5091846;28;20073;-72
2023/04/28 05:15:15;;;;;;;16.35;8.15;;;20.80;76.30;;;;;;5091465;28;20411;-72
2023/04/28 05:18:27;;;;;;;19.45;8.07;;;21.80;74.90;;;;;;5091226;28;20125;-72
2023/04/28 05:21:31;;;;;;;24.88;8.68;;;20.90;75.80;;;;;;5091186;28;20047;-72
2023/04/28 05:24:36;;;;;;;18.05;7.60;;;20.10;76.10;;;;;;5079463;28;20039;-73
2023/04/28 05:27:40;;;;;;;20.15;8.65;;;19.00;79.20;;;;;;5091482;28;20051;-73
2023/04/28 05:30:44;;;;;;;23.15;7.90;;;19.10;80.00;;;;;;5090895;28;20051;-73
2023/04/28 05:33:49;;;;;;;30.90;8.32;;;18.90;80.70;;;;;;5090028;28;20044;-73
2023/04/28 05:36:53;;;;;;;32.13;9.35;;;18.70;81.40;;;;;;5091023;28;20055;-68
2023/04/28 05:40:02;;;;;;;27.75;9.40;;;18.50;82.90;;;;;;5090993;28;20360;-68
2023/04/28 05:43:07;;;;;;;28.33;8.85;;;18.70;82.30;;;;;;5091024;28;20051;-67
2023/04/28 05:46:12;;;;;;;22.48;9.10;;;18.70;83.00;;;;;;5091161;28;20046;-68
2023/04/28 05:49:16;;;;;;;18.67;8.65;;;18.60;82.80;;;;;;5090648;28;20047;-67
2023/04/28 05:52:20;;;;;;;28.55;9.88;;;18.40;83.90;;;;;;5091676;28;20043;-67
2023/04/28 05:55:24;;;;;;;45.08;9.73;;;18.50;83.80;;;;;;5090683;28;20058;-68
2023/04/28 05:58:29;;;;;;;32.28;9.73;;;18.60;84.20;;;;;;5079191;28;20043;-67
2023/04/28 06:01:32;;;;;;;26.13;9.98;;;19.00;83.90;;;;;;5090782;28;20043;-67
2023/04/28 06:04:37;;;;;;;24.63;10.70;;;19.40;83.60;;;;;;5091079;28;20059;-68
2023/04/28 06:07:41;;;;;;;31.90;10.85;;;19.40;83.40;;;;;;5090598;28;20043;-68
2023/04/28 06:10:45;;;;;;;21.98;11.23;;;19.40;84.10;;;;;;5091352;28;20540;-68
2023/04/28 06:13:50;;;;;;;33.75;11.98;;;19.60;84.70;;;;;;5090127;28;20047;-68
2023/04/28 06:16:56;;;;;;;25.30;12.27;;;19.70;85.20;;;;;;5090240;28;20510;-67
2023/04/28 06:20:00;;;;;;;26.25;11.55;;;19.90;84.90;;;;;;5090146;28;20043;-67
2023/04/28 06:23:04;;;;;;;28.60;11.57;;;19.70;85.80;;;;;;5089756;28;20384;-68
2023/04/28 06:26:08;;;;;;;28.10;13.05;;;20.00;85.30;;;;;;5090215;28;20122;-67
2023/04/28 06:29:15;;;;;;;26.52;12.27;;;20.10;85.10;;;;;;5090198;28;20502;-67
2023/04/28 06:32:20;;;;;;;24.75;11.45;;;20.20;85.00;;;;;;5090546;28;20055;-66
2023/04/28 06:35:24;;;;;;;23.10;10.32;;;20.50;85.10;;;;;;5091063;28;20502;-67
2023/04/28 06:38:28;;;;;;;22.08;9.93;;;21.00;83.30;;;;;;5089932;28;20062;-67
2023/04/28 06:41:32;;;;;;;14.65;8.55;;;21.30;81.70;;;;;;5091026;28;20071;-67
2023/04/28 06:44:36;;;;;;;21.85;9.75;;;21.60;81.00;;;;;;5090754;28;20137;-67
2023/04/28 06:47:41;;;;;;;25.05;11.43;;;22.00;80.50;;;;;;5090544;28;20391;-67
2023/04/28 06:50:47;;;;;;;21.05;11.63;;;21.80;81.50;;;;;;5090816;28;20110;-68
2023/04/28 06:53:52;;;;;;;21.52;10.55;;;21.60;82.50;;;;;;5091086;28;20125;-67
2023/04/28 06:56:55;;;;;;;19.55;10.32;;;21.80;84.80;;;;;;5090842;28;20047;-67
2023/04/28 07:00:03;;;;;;;25.50;7.88;;;22.30;83.30;;;;;;5090055;28;20063;-67
2023/04/28 07:03:07;;;;;;;16.05;9.05;;;22.60;85.50;;;;;;5091086;28;20047;-68
2023/04/28 07:06:11;;;;;;;21.08;9.65;;;22.90;83.20;;;;;;5091028;28;20495;-67
2023/04/28 07:09:34;;;;;;;22.40;10.05;;;22.80;82.10;;;;;;5091130;28;20051;-67
2023/04/28 07:12:38;;;;;;;16.05;8.65;;;22.80;81.70;;;;;;5091085;28;20043;-67
2023/04/28 07:15:42;;;;;;;22.67;9.25;;;22.70;80.50;;;;;;5090617;28;20051;-67
2023/04/28 07:18:45;;;;;;;22.20;9.57;;;22.70;79.60;;;;;;5090675;28;20217;-67
2023/04/28 07:21:49;;;;;;;15.18;7.80;;;22.80;79.70;;;;;;5090406;28;20673;-67
2023/04/28 07:24:53;;;;;;;19.13;8.43;;;23.20;76.00;;;;;;5090346;28;20043;-66
2023/04/28 07:27:57;;;;;;;21.23;8.40;;;23.40;76.60;;;;;;5090707;28;20059;-67
2023/04/28 07:31:01;;;;;;;19.77;8.18;;;23.50;76.20;;;;;;5090553;28;20055;-68
2023/04/28 07:34:05;;;;;;;15.68;7.25;;;23.30;76.00;;;;;;5090681;28;20047;-68
2023/04/28 07:37:10;;;;;;;20.88;8.02;;;23.30;74.30;;;;;;5090449;28;20048;-68
2023/04/28 07:40:15;;;;;;;25.50;6.88;;;23.40;74.40;;;;;;5090637;28;20059;-67
2023/04/28 07:43:18;;;;;;;16.85;6.63;;;23.60;73.70;;;;;;5090120;28;20517;-67
2023/04/28 07:46:22;;;;;;;16.85;6.53;;;23.70;72.80;;;;;;5090042;28;20058;-68
2023/04/28 07:49:30;;;;;;;12.52;5.45;;;23.50;72.00;;;;;;5090018;28;20047;-67
2023/04/28 07:52:34;;;;;;;26.50;6.60;;;23.40;71.70;;;;;;5090314;28;20047;-68
2023/04/28 07:55:40;;;;;;;16.45;5.38;;;23.60;71.50;;;;;;5090255;28;20399;-68
2023/04/28 07:58:45;;;;;;;16.55;4.07;;;23.70;68.90;;;;;;5093081;28;20051;-67
2023/04/28 08:01:48;;;;;;;14.48;3.95;;;23.80;66.40;;;;;;5093969;28;20399;-68
2023/04/28 08:04:52;;;;;;;16.30;3.95;;;23.80;67.20;;;;;;5093655;28;20043;-68
2023/04/28 08:07:58;;;;;;;8.95;3.30;;;23.80;67.00;;;;;;5093863;28;20063;-68
2023/04/28 08:11:01;;;;;;;7.35;3.65;;;23.90;66.90;;;;;;5093747;28;20039;-67
2023/04/28 08:14:06;;;;;;;9.95;3.28;;;23.90;66.60;;;;;;5093451;28;20042;-66
2023/04/28 08:17:10;;;;;;;7.65;3.15;;;23.90;66.90;;;;;;5093568;28;20051;-67
2023/04/28 08:20:14;;;;;;;9.73;3.90;;;24.00;65.20;;;;;;5093382;28;20035;-66
2023/04/28 08:23:19;;;;;;;8.48;3.30;;;24.00;65.60;;;;;;5093290;28;20051;-67
2023/04/28 08:26:24;;;;;;;7.25;2.50;;;23.80;65.30;;;;;;5093103;28;20055;-68
2023/04/28 08:29:32;;;;;;;6.32;2.88;;;23.90;65.10;;;;;;5093145;28;20055;-67
2023/04/28 08:32:36;;;;;;;9.18;3.13;;;23.90;62.90;;;;;;5092915;28;20039;-67
2023/04/28 08:35:40;;;;;;;8.20;3.20;;;24.00;63.60;;;;;;5092872;28;20055;-67
2023/04/28 08:38:45;;;;;;;6.93;3.03;;;24.10;63.60;;;;;;5092910;28;20043;-67
2023/04/28 08:41:49;;;;;;;10.45;3.42;;;24.10;63.00;;;;;;5093255;28;20047;-67
2023/04/28 08:44:58;;;;;;;15.63;3.97;;;24.20;63.70;;;;;;5092771;28;20047;-67
2023/04/28 08:48:04;;;;;;;7.68;4.30;;;24.30;64.10;;;;;;5092706;28;20055;-67
2023/04/28 08:51:08;;;;;;;13.50;4.30;;;24.30;61.50;;;;;;5092962;28;20051;-66
2023/04/28 08:54:18;;;;;;;13.00;4.18;;;24.30;62.80;;;;;;5093033;28;20039;-67
2023/04/28 08:57:22;;;;;;;6.05;3.75;;;24.30;63.00;;;;;;5092719;28;20051;-66
2023/04/28 09:00:26;;;;;;;6.93;3.78;;;24.30;63.80;;;;;;5092643;28;20047;-66
2023/04/28 09:03:31;;;;;;;8.25;4.55;;;24.40;64.40;;;;;;5092596;28;20046;-67
2023/04/28 09:06:37;;;;;;;13.23;4.70;;;24.50;64.10;;;;;;5091684;28;20047;-67
2023/04/28 09:09:41;;;;;;;9.38;5.03;;;24.50;64.10;;;;;;5091840;28;20047;-67
2023/04/28 09:12:45;;;;;;;12.30;4.45;;;24.50;65.10;;;;;;5092292;28;20055;-66
2023/04/28 09:15:50;;;;;;;6.72;3.58;;;24.50;63.80;;;;;;5092201;28;20075;-67
2023/04/28 09:18:57;;;;;;;14.52;6.63;;;24.50;64.00;;;;;;5092136;28;20043;-67
2023/04/28 09:22:02;;;;;;;10.48;4.45;;;24.40;63.30;;;;;;5092264;28;20043;-67
2023/04/28 09:25:10;;;;;;;11.13;5.45;;;24.30;64.50;;;;;;5092175;28;20035;-67
2023/04/28 09:28:21;;;;;;;13.07;3.90;;;24.30;66.10;;;;;;5092413;28;20059;-67
2023/04/28 09:31:28;;;;;;;9.85;4.53;;;24.40;65.00;;;;;;5091172;28;20047;-67
2023/04/28 09:34:47;;;;;;;9.45;3.58;;;24.40;61.80;;;;;;5091927;28;20042;-67
2023/04/28 09:37:57;;;;;;;7.18;3.22;;;24.50;63.70;;;;;;5092208;28;20055;-67
2023/04/28 09:41:02;;;;;;;7.43;3.00;;;24.50;60.60;;;;;;5092189;28;20039;-67
2023/04/28 09:44:20;;;;;;;4.95;2.55;;;24.50;62.50;;;;;;5091662;28;20043;-67
2023/04/28 09:47:24;;;;;;;3.45;1.70;;;24.50;62.60;;;;;;5091714;28;20051;-67
2023/04/28 09:50:40;;;;;;;4.40;1.80;;;24.50;60.50;;;;;;5092103;28;20051;-66
2023/04/28 09:53:43;;;;;;;7.97;2.97;;;24.60;59.10;;;;;;5091486;28;20039;-66
2023/04/28 09:56:49;;;;;;;7.20;2.30;;;24.60;60.10;;;;;;5091558;28;20510;-67
2023/04/28 09:59:53;;;;;;;5.93;2.30;;;24.60;57.70;;;;;;5091362;28;20043;-67
2023/04/28 10:02:58;;;;;;;7.65;2.78;;;24.60;58.20;;;;;;5091547;28;20047;-67
2023/04/28 10:06:03;;;;;;;7.32;2.33;;;24.60;61.10;;;;;;5091530;28;20594;-66
2023/04/28 10:09:07;;;;;;;11.68;3.30;;;24.70;61.10;;;;;;5091333;28;20051;-67
2023/04/28 10:12:12;;;;;;;7.82;3.38;;;24.80;61.70;;;;;;5091612;28;20047;-68
2023/04/28 10:15:16;;;;;;;9.05;3.60;;;24.90;61.50;;;;;;5091289;28;20043;-68
2023/04/28 10:18:22;;;;;;;7.05;2.97;;;25.00;62.80;;;;;;5091583;28;20047;-68
2023/04/28 10:21:29;;;;;;;6.90;3.60;;;25.00;63.90;;;;;;5090644;28;20047;-67
2023/04/28 10:24:53;;;;;;;13.43;4.82;;;25.10;63.80;;;;;;5091319;28;20050;-67
2023/04/28 10:27:59;;;;;;;13.55;5.30;;;25.20;62.60;;;;;;5091393;28;20513;-67
2023/04/28 10:31:13;;;;;;;14.23;5.75;;;25.20;64.70;;;;;;5091198;28;20043;-67
2023/04/28 10:34:24;;;;;;;9.30;4.72;;;25.30;65.30;;;;;;5090992;28;20043;-66
2023/04/28 10:38:09;;;;;;;13.88;4.95;;;25.30;66.50;;;;;;5091169;28;20047;-67
2023/04/28 10:41:31;;;;;;;11.85;5.65;;;25.40;66.30;;;;;;5090903;28;20039;-68
2023/04/28 10:44:35;;;;;;;11.38;5.00;;;25.40;66.00;;;;;;5090626;28;20047;-67
2023/04/28 10:48:15;;;;;;;7.38;3.95;;;25.40;66.90;;;;;;5089076;28;20059;-66
2023/04/28 10:51:19;;;;;;;16.42;4.47;;;25.30;66.30;;;;;;5087556;28;20039;-67
2023/04/28 10:54:24;;;;;;;9.73;3.95;;;25.30;66.80;;;;;;5090251;28;20039;-68
2023/04/28 10:57:28;;;;;;;11.15;4.28;;;25.30;66.30;;;;;;5089825;28;20059;-68
2023/04/28 11:00:32;;;;;;;9.32;3.65;;;25.30;66.70;;;;;;5090153;28;20039;-67
2023/04/28 11:03:45;;;;;;;9.90;3.90;;;25.20;66.60;;;;;;5090847;28;20063;-68
2023/04/28 11:07:09;;;;;;;7.70;3.45;;;25.10;66.60;;;;;;5090605;28;20047;-68
2023/04/28 11:10:13;;;;;;;11.88;4.80;;;25.10;66.60;;;;;;5090482;28;20043;-68
2023/04/28 11:13:30;;;;;;;9.45;3.65;;;25.00;67.80;;;;;;5090609;28;20074;-68
2023/04/28 11:17:07;;;;;;;5.03;2.30;;;25.00;66.90;;;;;;5090672;28;20074;-67
2023/04/28 11:20:13;;;;;;;7.47;2.35;;;25.00;63.60;;;;;;5090519;28;20459;-67
2023/04/28 11:23:17;;;;;;;4.47;2.53;;;25.00;64.20;;;;;;5090572;28;20043;-67
2023/04/28 11:26:22;;;;;;;4.95;1.92;;;25.00;64.60;;;;;;5090369;28;20498;-68
2023/04/28 11:29:39;;;;;;;6.63;2.80;;;24.90;61.30;;;;;;5090415;28;20110;-67
2023/04/28 11:32:43;;;;;;;4.43;2.00;;;24.90;62.90;;;;;;5093694;28;20043;-68
2023/04/28 11:35:47;;;;;;;5.93;2.65;;;24.90;62.20;;;;;;5093797;28;20430;-68
2023/04/28 11:38:51;;;;;;;5.28;2.38;;;24.90;62.90;;;;;;5094466;28;20059;-68
2023/04/28 11:41:56;;;;;;;9.57;2.40;;;24.90;64.20;;;;;;5094413;28;20055;-67
2023/04/28 11:45:00;;;;;;;10.15;2.13;;;24.90;64.00;;;;;;5094137;28;20051;-68
2023/04/28 11:48:21;;;;;;;11.23;2.47;;;24.80;61.70;;;;;;5093986;28;20063;-68
2023/04/28 11:51:33;;;;;;;3.85;1.67;;;24.80;61.30;;;;;;5094144;28;20043;-68
2023/04/28 11:54:37;;;;;;;8.63;1.95;;;24.80;60.50;;;;;;5093857;28;20043;-68
2023/04/28 11:57:41;;;;;;;5.13;1.48;;;24.70;61.20;;;;;;5093924;28;20047;-68
2023/04/28 12:01:05;;;;;;;8.57;2.17;;;24.70;60.80;;;;;;5093660;28;20055;-68
2023/04/28 12:04:11;;;;;;;7.65;2.17;;;24.70;60.00;;;;;;5093884;28;20510;-69
2023/04/28 12:07:17;;;;;;;6.22;2.10;;;24.60;59.70;;;;;;5093680;28;20495;-68
2023/04/28 12:10:21;;;;;;;4.78;1.50;;;24.60;60.10;;;;;;5093666;28;20051;-69
2023/04/28 12:13:25;;;;;;;4.95;1.65;;;24.60;59.20;;;;;;5093617;28;20066;-68
2023/04/28 12:16:42;;;;;;;2.33;1.20;;;24.50;59.20;;;;;;5093603;28;20170;-67
2023/04/28 12:19:46;;;;;;;3.78;1.23;;;24.40;59.40;;;;;;5093345;28;20039;-67
2023/04/28 12:22:50;;;;;;;5.30;1.35;;;24.40;58.40;;;;;;5092615;28;20051;-68
2023/04/28 12:25:55;;;;;;;4.70;1.13;;;24.40;56.30;;;;;;5093193;28;20051;-69
2023/04/28 12:28:59;;;;;;;5.55;1.60;;;24.40;56.60;;;;;;5092769;28;20067;-68
2023/04/28 12:32:07;;;;;;;5.20;1.52;;;24.40;57.90;;;;;;5092203;28;20158;-69
2023/04/28 12:35:11;;;;;;;4.03;1.02;;;24.30;57.80;;;;;;5092980;28;20039;-69
2023/04/28 12:38:15;;;;;;;8.57;1.83;;;24.30;55.70;;;;;;5092938;28;20450;-69
2023/04/28 12:41:19;;;;;;;3.80;0.90;;;24.30;55.70;;;;;;5093007;28;20383;-69
2023/04/28 12:44:24;;;;;;;3.03;1.25;;;24.30;55.50;;;;;;5091686;28;20047;-69
2023/04/28 12:47:28;;;;;;;5.38;1.15;;;24.30;55.00;;;;;;5093067;28;20043;-69
2023/04/28 12:50:32;;;;;;;2.00;1.00;;;24.30;55.60;;;;;;5092897;28;20051;-69
2023/04/28 12:53:35;;;;;;;6.78;1.25;;;24.30;55.90;;;;;;5092974;28;20392;-69
2023/04/28 12:56:39;;;;;;;1.98;1.40;;;24.30;57.30;;;;;;5091922;28;20514;-69
2023/04/28 12:59:46;;;;;;;5.90;1.10;;;24.30;55.60;;;;;;5092573;28;20064;-69
2023/04/28 13:02:50;;;;;;;3.72;1.20;;;24.20;55.80;;;;;;5092755;28;20047;-68
2023/04/28 13:05:54;;;;;;;23.85;2.05;;;24.20;57.30;;;;;;5093020;28;20047;-69
2023/04/28 13:08:58;;;;;;;4.35;2.15;;;24.20;57.00;;;;;;5092726;28;20055;-68
2023/04/28 13:12:03;;;;;;;6.18;1.58;;;24.10;57.00;;;;;;5092687;28;20039;-69
2023/04/28 13:15:08;;;;;;;5.63;1.40;;;24.00;59.40;;;;;;5092214;28;20067;-69
2023/04/28 13:18:12;;;;;;;3.38;1.30;;;24.00;58.10;;;;;;5092572;28;20051;-68
2023/04/28 13:21:16;;;;;;;7.00;1.20;;;23.90;60.00;;;;;;5092382;28;20051;-69
2023/04/28 13:24:20;;;;;;;5.78;2.08;;;23.90;62.00;;;;;;5092331;28;20039;-69
2023/04/28 13:27:24;;;;;;;5.63;1.63;;;23.90;63.40;;;;;;5092116;28;20054;-68
2023/04/28 13:30:29;;;;;;;8.00;2.10;;;23.90;64.70;;;;;;5092137;28;20043;-69
2023/04/28 13:33:32;;;;;;;11.10;2.85;;;23.90;66.00;;;;;;5092332;28;20050;-69
2023/04/28 13:36:37;;;;;;;6.97;2.63;;;23.90;66.00;;;;;;5092795;28;20051;-69
2023/04/28 13:39:41;;;;;;;6.18;1.67;;;23.80;64.50;;;;;;5092266;28;20043;-69
2023/04/28 13:42:45;;;;;;;5.00;1.95;;;23.70;64.60;;;;;;5091906;28;20059;-67
2023/04/28 13:45:50;;;;;;;7.38;2.22;;;23.70;64.00;;;;;;5092038;28;20039;-68
2023/04/28 13:48:54;;;;;;;9.20;2.67;;;23.60;65.50;;;;;;5092524;28;20055;-69
2023/04/28 13:51:58;;;;;;;7.80;2.70;;;23.60;66.30;;;;;;5092361;28;20047;-70
2023/04/28 13:55:02;;;;;;;3.42;2.20;;;23.60;66.50;;;;;;5090547;28;20071;-70
2023/04/28 13:58:06;;;;;;;4.63;1.80;;;23.60;67.00;;;;;;5091902;28;20403;-69
2023/04/28 14:01:11;;;;;;;5.13;1.92;;;23.70;65.10;;;;;;5091664;28;20082;-69
2023/04/28 14:04:14;;;;;;;5.10;1.90;;;23.70;65.60;;;;;;5091475;28;20051;-68
2023/04/28 14:07:19;;;;;;;10.90;2.40;;;23.70;63.60;;;;;;5091645;28;20047;-68
2023/04/28 14:10:23;;;;;;;5.20;1.90;;;23.60;63.00;;;;;;5091152;28;20047;-67
2023/04/28 14:13:28;;;;;;;3.35;1.70;;;23.60;64.50;;;;;;5091306;28;20035;-67
2023/04/28 14:16:32;;;;;;;7.05;1.70;;;23.60;63.50;;;;;;5090879;28;20489;-67
2023/04/28 14:19:36;;;;;;;9.98;1.60;;;23.50;61.20;;;;;;5090280;28;20047;-70
2023/04/28 14:22:40;;;;;;;5.40;1.73;;;23.50;61.50;;;;;;5091453;28;20080;-68
2023/04/28 14:25:44;;;;;;;7.40;1.90;;;23.50;60.50;;;;;;5090771;28;20118;-72
2023/04/28 14:28:48;;;;;;;7.18;1.70;;;23.50;60.60;;;;;;5091293;28;20043;-68
2023/04/28 14:31:52;;;;;;;6.70;1.50;;;23.50;62.50;;;;;;5090813;28;20047;-67
2023/04/28 14:34:56;;;;;;;8.00;2.05;;;23.50;62.90;;;;;;5091024;28;20395;-67
2023/04/28 14:38:00;;;;;;;5.65;2.45;;;23.50;62.90;;;;;;5090659;28;20080;-68
2023/04/28 14:41:04;;;;;;;5.88;2.13;;;23.50;63.80;;;;;;5091411;28;20051;-68
2023/04/28 14:44:08;;;;;;;5.15;1.50;;;23.40;64.50;;;;;;5091186;28;20055;-67
2023/04/28 14:47:13;;;;;;;7.25;1.95;;;23.40;63.90;;;;;;5090583;28;20047;-67
2023/04/28 14:50:17;;;;;;;6.10;1.42;;;23.40;63.10;;;;;;5090526;28;20047;-66
2023/04/28 14:53:23;;;;;;;8.68;1.50;;;23.40;63.80;;;;;;5090491;28;20051;-66
2023/04/28 14:56:26;;;;;;;9.30;1.65;;;23.40;60.80;;;;;;5089947;28;20055;-66
2023/04/28 14:59:30;;;;;;;5.95;1.75;;;23.40;61.20;;;;;;5090269;28;20055;-66
2023/04/28 15:02:35;;;;;;;4.72;1.40;;;23.40;61.70;;;;;;5090545;28;20039;-66
2023/04/28 15:05:39;;;;;;;8.20;1.48;;;23.30;58.80;;;;;;5090823;28;20043;-67
2023/04/28 15:08:43;;;;;;;6.10;1.80;;;23.30;61.20;;;;;;5094981;28;20043;-67
2023/04/28 15:11:47;;;;;;;4.70;1.75;;;23.30;58.70;;;;;;5094297;28;20039;-66
2023/04/28 15:14:52;;;;;;;4.30;0.95;;;23.20;59.80;;;;;;5094360;28;20047;-67
2023/04/28 15:17:59;;;;;;;6.20;1.20;;;23.20;60.80;;;;;;5094261;28;20055;-67
2023/04/28 15:21:03;;;;;;;4.32;1.10;;;23.10;60.70;;;;;;5094557;28;20051;-67
2023/04/28 15:24:07;;;;;;;6.90;1.25;;;23.10;57.40;;;;;;5094314;28;20071;-67
2023/04/28 15:27:11;;;;;;;6.85;1.40;;;23.00;58.80;;;;;;5094231;28;20407;-68
2023/04/28 15:30:16;;;;;;;13.75;3.13;;;23.00;59.70;;;;;;5094412;28;20407;-68
2023/04/28 15:37:36;;;;;;;5.50;1.10;;;23.00;58.70;;;;;;5094035;28;20059;-70
2023/04/28 15:40:42;;;;;;;3.88;1.33;;;22.90;58.50;;;;;;5094350;28;20656;-70
2023/04/28 15:43:46;;;;;;;1.40;1.17;;;22.90;57.90;;;;;;5094097;28;20051;-68
2023/04/28 15:46:51;;;;;;;3.85;1.13;;;22.80;59.40;;;;;;5094313;28;20067;-68
2023/04/28 15:49:57;;;;;;;5.03;1.20;;;22.80;60.70;;;;;;5093899;28;20051;-67
2023/04/28 15:53:02;;;;;;;8.57;1.58;;;22.80;59.20;;;;;;5094347;28;20055;-67
2023/04/28 15:56:06;;;;;;;7.13;1.73;;;22.70;60.00;;;;;;5093749;28;20043;-72
2023/04/28 15:59:14;;;;;;;8.00;1.60;;;22.70;60.80;;;;;;5094106;28;20522;-66
2023/04/28 16:02:20;;;;;;;5.80;1.60;;;22.60;63.10;;;;;;5093748;28;20387;-68
2023/04/28 16:05:25;;;;;;;4.70;1.35;;;22.50;59.90;;;;;;5094163;28;20047;-67